Flight Track Log - Related Links

Times and Time Zones

All times are in EST time to prevent confusion due to time zone crossing. See the UCA3597 flight status page for this flight to view local times or setup timezone preferences in your user account.

Time Position Orientation Groundspeed Altitude Reporting Facility
EST Latitude Longitude Course Direction KTS MPH feet Rate Location/Type
Thu 06:08:00 PM 40.5602 -76.7469 19° North  Level Estimated
Thu 06:09:00 PM 40.6165 -76.7214 19° North  Level Estimated
Thu 06:10:00 PM 40.6729 -76.6958 19° North  Level Estimated
Thu 06:11:00 PM 40.7292 -76.6701 19° North  Level Estimated
Thu 06:12:00 PM 40.7855 -76.6445 19° North  Level Estimated
Thu 06:13:00 PM 40.8418 -76.6187 19° North  Level Estimated
Thu 06:14:00 PM 40.8981 -76.5930 19° North  Level Estimated
Thu 06:15:00 PM 40.9544 -76.5671 19° North  Level Estimated
Thu 06:16:00 PM 41.0107 -76.5413 19° North  Level Estimated
Thu 06:17:00 PM 41.0670 -76.5154 19° North  Level Estimated
Thu 06:18:00 PM 41.1232 -76.4894 19° North  Level Estimated
Thu 06:19:00 PM 41.1795 -76.4634 19° North  Level Estimated
Thu 06:20:00 PM 41.2358 -76.4374 19° North  Level Estimated
Thu 06:21:00 PM 41.2920 -76.4113 19° North  Level Estimated
Thu 06:22:00 PM 41.3483 -76.3852 19° North  Level Estimated
Thu 06:23:00 PM 41.4045 -76.3590 19° North  Level Estimated
Thu 06:24:00 PM 41.4608 -76.3328 19° North  Level Estimated
Thu 06:25:00 PM 41.5170 -76.3065 19° North  Level Estimated
Thu 06:26:00 PM 41.5732 -76.2802 19° North  Level Estimated
Thu 06:27:00 PM 41.6294 -76.2539 19° North  Level Estimated
Thu 06:28:00 PM 41.6857 -76.2275 19° North  Level Estimated
Thu 06:29:00 PM 41.7419 -76.2010 19° North  Level Estimated
Thu 06:30:00 PM 41.7981 -76.1746 19° North  Level Estimated
Thu 06:31:00 PM 41.8543 -76.1480 19° North  Level Estimated
Thu 06:32:00 PM 41.9105 -76.1214 19° North  Level Estimated
Thu 06:33:00 PM 41.9666 -76.0948 19° North  Level Estimated
Thu 06:34:00 PM 42.0228 -76.0681 19° North  Level Estimated
Thu 06:35:00 PM 42.0790 -76.0414 19° North  Level Estimated
Thu 06:36:00 PM 42.1352 -76.0146 19° North  Level Estimated
Thu 06:37:00 PM 42.1913 -75.9878 19° North  Level Estimated
Thu 06:38:00 PM 42.2084 -75.9796 20° North  Level Estimated
Thu 06:39:00 PM 42.2084 -75.9796 35° Northeast  Level Estimated
Thu 06:40:00 PM 42.2084 -75.9796 35° Northeast  Level Estimated
Thu 06:41:00 PM 42.2084 -75.9796 35° Northeast  Level Estimated
Thu 06:42:00 PM 42.2084 -75.9796 35° Northeast  Level Estimated
Thu 06:43:00 PM 42.2084 -75.9796 35° Northeast  Level Estimated
Thu 06:44:00 PM 42.2084 -75.9796 35° Northeast  Level Estimated
Thu 06:45:00 PM 42.2084 -75.9796 35° Northeast  Level Estimated
Thu 06:46:00 PM 42.2084 -75.9796 35° Northeast  Level Estimated
Thu 06:47:00 PM 42.2084 -75.9796 35° Northeast  Level Estimated

Login

Don't have an account? Register now (free) for customized features, flight alerts, and more!